Time;durP1;ratioP1;P1;durP2;ratioP2;P2;SDS_P1;SDS_P2;PMS_P1;PMS_P2;Temp;Humidity;BMP_temperature;BMP_pressure;BME280_temperature;BME280_humidity;BME280_pressure;Samples;Min_cycle;Max_cycle;Signal;HPM_P1;HPM_P2
2022/01/23 00:00:26;;;;;;;11.23;1.30;;;5.70;88.90;;;;;;4084063;28;20569;-88
2022/01/23 00:02:28;;;;;;;3.90;0.90;;;5.70;88.80;;;;;;4111839;28;20381;-87
2022/01/23 00:04:29;;;;;;;5.28;0.80;;;5.70;88.60;;;;;;4065785;29;20027;-89
2022/01/23 00:06:30;;;;;;;2.17;0.70;;;5.70;88.70;;;;;;4097332;28;20066;-88
2022/01/23 00:08:32;;;;;;;3.25;0.75;;;5.70;88.80;;;;;;4095029;28;20031;-88
2022/01/23 00:10:33;;;;;;;1.85;0.60;;;5.70;88.70;;;;;;4092667;28;20095;-88
2022/01/23 00:12:40;;;;;;;4.35;1.17;;;5.70;88.70;;;;;;4062938;29;20140;-88
2022/01/23 00:17:20;;;;;;;2.47;0.57;;;5.70;88.60;;;;;;4096681;28;20043;-88
2022/01/23 00:19:21;;;;;;;5.35;1.13;;;5.80;88.60;;;;;;4096454;28;20034;-89
2022/01/23 00:21:21;;;;;;;3.25;0.88;;;5.80;88.50;;;;;;4081525;29;20102;-88
2022/01/23 00:30:22;;;;;;;6.63;1.88;;;5.80;88.40;;;;;;4094904;28;20039;-88
2022/01/23 00:32:23;;;;;;;3.30;1.10;;;5.90;88.40;;;;;;4082180;29;20028;-88
2022/01/23 00:34:23;;;;;;;7.75;0.98;;;5.80;88.30;;;;;;4098377;28;20038;-87
2022/01/23 00:36:24;;;;;;;5.85;1.15;;;5.80;88.40;;;;;;4083072;28;20040;-89
2022/01/23 00:38:25;;;;;;;5.43;0.95;;;5.80;88.40;;;;;;4092073;28;20473;-87
2022/01/23 00:40:27;;;;;;;4.93;1.10;;;5.80;88.50;;;;;;4109359;28;20035;-88
2022/01/23 00:42:28;;;;;;;6.35;0.90;;;5.80;88.50;;;;;;4065258;29;20064;-87
2022/01/23 00:44:29;;;;;;;2.63;0.88;;;5.90;88.50;;;;;;4092801;28;20145;-88
2022/01/23 00:46:35;;;;;;;2.58;0.80;;;5.80;88.50;;;;;;4093761;28;20076;-88
2022/01/23 00:48:39;;;;;;;6.63;0.98;;;5.80;88.50;;;;;;4081162;28;20656;-87
2022/01/23 00:50:42;;;;;;;4.70;0.90;;;5.90;88.40;;;;;;4082703;29;20032;-88
2022/01/23 00:52:42;;;;;;;6.80;1.15;;;5.80;88.50;;;;;;4083469;29;20038;-88
2022/01/23 00:54:43;;;;;;;5.00;1.02;;;5.80;88.60;;;;;;4074520;29;20055;-89
2022/01/23 00:56:44;;;;;;;5.72;0.95;;;5.80;88.50;;;;;;4078402;29;20110;-87
2022/01/23 00:58:44;;;;;;;3.35;1.10;;;5.90;88.70;;;;;;4079432;29;20119;-88
2022/01/23 01:00:45;;;;;;;3.65;1.10;;;5.80;88.50;;;;;;4069568;29;20118;-87
2022/01/23 01:02:46;;;;;;;5.65;0.80;;;5.90;88.70;;;;;;4082666;29;20086;-90
2022/01/23 01:04:46;;;;;;;6.00;0.93;;;5.80;88.60;;;;;;4078749;29;20107;-88
2022/01/23 01:06:47;;;;;;;4.70;0.80;;;5.80;88.60;;;;;;4074765;29;20028;-88
2022/01/23 01:08:50;;;;;;;5.13;1.55;;;5.80;88.50;;;;;;4097634;28;20113;-89
2022/01/23 01:11:10;;;;;;;5.40;1.00;;;5.90;88.90;;;;;;4067654;29;20032;-88
2022/01/23 01:13:13;;;;;;;3.50;1.00;;;5.80;88.70;;;;;;4083749;28;20028;-88
2022/01/23 01:34:05;;;;;;;4.65;0.85;;;5.80;88.70;;;;;;4056674;29;20098;-89
2022/01/23 01:36:30;;;;;;;3.40;1.30;;;5.80;88.80;;;;;;4082046;28;20051;-90
2022/01/23 01:38:28;;;;;;;4.77;1.13;;;5.90;88.80;;;;;;4096320;28;20027;-89
2022/01/23 01:40:29;;;;;;;4.05;1.02;;;5.90;88.70;;;;;;4078622;29;20032;-88
2022/01/23 01:42:30;;;;;;;5.75;1.20;;;5.90;88.80;;;;;;4094246;28;20023;-89
2022/01/23 01:44:31;;;;;;;8.43;2.05;;;5.90;88.80;;;;;;4097286;28;20091;-89
2022/01/23 01:46:31;;;;;;;4.00;1.10;;;5.80;88.90;;;;;;4076353;29;20024;-89
2022/01/23 01:48:32;;;;;;;5.32;1.30;;;5.90;88.80;;;;;;4084637;29;20031;-89
2022/01/23 01:50:33;;;;;;;12.43;1.90;;;5.90;88.90;;;;;;4082741;29;20095;-87
2022/01/23 01:52:34;;;;;;;3.60;1.30;;;5.90;88.80;;;;;;4100530;28;20042;-89
2022/01/23 01:54:37;;;;;;;2.80;1.20;;;5.90;88.80;;;;;;4103255;28;20055;-88
2022/01/23 01:56:52;;;;;;;6.70;1.38;;;5.80;89.60;;;;;;4096813;28;20027;-88
2022/01/23 01:59:19;;;;;;;5.85;1.20;;;5.90;88.90;;;;;;4090463;28;20207;-88
2022/01/23 02:10:23;;;;;;;4.57;1.30;;;5.90;88.70;;;;;;4093698;28;20020;-90
2022/01/23 02:15:15;;;;;;;5.10;1.20;;;5.90;88.70;;;;;;4080295;28;20028;-88
2022/01/23 02:52:53;;;;;;;7.25;1.40;;;5.80;88.60;;;;;;4096000;28;20527;-89
2022/01/23 02:55:09;;;;;;;4.47;0.90;;;5.80;88.60;;;;;;4093592;28;20027;-88
2022/01/23 02:57:11;;;;;;;5.57;1.30;;;5.80;88.70;;;;;;4091591;28;20433;-88
2022/01/23 02:59:20;;;;;;;4.78;1.08;;;5.80;88.70;;;;;;4068681;28;20557;-88
2022/01/23 03:01:21;;;;;;;6.20;1.70;;;5.90;88.70;;;;;;4070529;29;20029;-87
2022/01/23 03:03:24;;;;;;;6.05;1.30;;;5.90;88.70;;;;;;4091998;28;20032;-85
2022/01/23 03:05:36;;;;;;;6.82;1.42;;;5.90;88.70;;;;;;4097464;28;20046;-87
2022/01/23 03:10:03;;;;;;;2.70;1.15;;;5.90;88.70;;;;;;4103293;28;20078;-88
2022/01/23 03:14:39;;;;;;;9.98;1.13;;;5.90;88.70;;;;;;4105201;28;20023;-87
2022/01/23 03:28:35;;;;;;;3.63;1.13;;;5.90;88.70;;;;;;4082130;28;20071;-87
2022/01/23 03:30:39;;;;;;;6.93;2.10;;;6.00;88.80;;;;;;4062436;29;20127;-87
2022/01/23 03:32:44;;;;;;;6.07;1.60;;;5.90;88.70;;;;;;4055677;29;20024;-87
2022/01/23 03:34:45;;;;;;;3.95;1.60;;;5.90;88.70;;;;;;4083102;28;20042;-90
2022/01/23 03:36:45;;;;;;;3.50;1.52;;;6.00;88.70;;;;;;4071437;29;20090;-90
2022/01/23 03:38:46;;;;;;;3.65;1.75;;;5.90;88.60;;;;;;4081665;29;20027;-90
2022/01/23 03:40:47;;;;;;;4.07;1.80;;;5.90;88.70;;;;;;4073251;29;20047;-90
2022/01/23 03:42:55;;;;;;;4.72;1.85;;;6.00;88.70;;;;;;4069184;29;20143;-90
2022/01/23 03:49:31;;;;;;;5.45;1.75;;;5.90;88.80;;;;;;4103673;28;20042;-88
2022/01/23 03:51:32;;;;;;;4.60;1.65;;;5.90;89.00;;;;;;4080822;29;20026;-88
2022/01/23 03:53:32;;;;;;;5.35;1.88;;;5.90;89.10;;;;;;4096527;29;20031;-87
2022/01/23 03:55:33;;;;;;;4.55;1.50;;;5.90;89.10;;;;;;4088502;29;20023;-89
2022/01/23 03:57:33;;;;;;;5.20;1.77;;;5.90;89.20;;;;;;4069529;29;20040;-88
2022/01/23 03:59:35;;;;;;;4.90;1.90;;;5.90;89.10;;;;;;4103524;28;20125;-89
2022/01/23 04:01:35;;;;;;;7.25;1.77;;;5.90;89.10;;;;;;4065543;29;20032;-90
2022/01/23 04:03:38;;;;;;;4.30;1.65;;;5.90;89.10;;;;;;4069945;29;20028;-90
2022/01/23 04:05:39;;;;;;;6.07;1.40;;;5.90;89.10;;;;;;4078510;29;20110;-89
2022/01/23 04:07:40;;;;;;;3.63;1.10;;;5.90;89.30;;;;;;4070192;29;20494;-90
2022/01/23 04:09:41;;;;;;;3.08;1.27;;;5.90;89.30;;;;;;4098768;28;20114;-90
2022/01/23 04:11:43;;;;;;;4.45;1.25;;;5.90;89.20;;;;;;4086643;29;20028;-89
2022/01/23 04:13:53;;;;;;;7.93;1.42;;;5.90;89.30;;;;;;4100772;28;20028;-90
2022/01/23 04:16:11;;;;;;;7.32;1.60;;;6.00;89.30;;;;;;4083704;28;20035;-89
2022/01/23 04:34:11;;;;;;;6.72;1.58;;;6.00;89.30;;;;;;4115685;28;20554;-91
2022/01/23 04:45:35;;;;;;;5.63;1.35;;;5.90;89.30;;;;;;4102234;28;20027;-93
2022/01/23 05:01:22;;;;;;;5.25;1.30;;;6.00;89.10;;;;;;4105351;28;20631;-88
2022/01/23 05:05:33;;;;;;;8.80;1.60;;;6.00;89.00;;;;;;4082930;29;20486;-89
2022/01/23 05:07:34;;;;;;;5.93;1.50;;;5.90;88.90;;;;;;4073240;29;20032;-89
2022/01/23 05:09:35;;;;;;;5.38;1.60;;;6.00;89.10;;;;;;4097678;29;20027;-89
2022/01/23 05:11:37;;;;;;;12.60;1.38;;;5.90;89.00;;;;;;4074925;29;20040;-88
2022/01/23 05:13:38;;;;;;;5.65;1.40;;;6.00;89.00;;;;;;4096073;28;20023;-88
2022/01/23 05:15:38;;;;;;;3.83;0.90;;;5.90;89.10;;;;;;4088034;29;20086;-88
2022/01/23 05:17:39;;;;;;;4.95;1.20;;;5.90;89.00;;;;;;4096392;28;20135;-89
2022/01/23 05:19:40;;;;;;;6.57;1.60;;;6.00;89.00;;;;;;4066213;29;20442;-88
2022/01/23 05:23:44;;;;;;;;;;;5.90;88.90;;;;;;4100130;28;20023;-88
2022/01/23 05:25:44;;;;;;;5.10;1.30;;;6.00;89.10;;;;;;4084368;28;20413;-89
2022/01/23 05:27:46;;;;;;;5.25;1.15;;;5.90;88.90;;;;;;4065958;29;20108;-88
2022/01/23 05:29:46;;;;;;;4.10;1.08;;;5.90;89.00;;;;;;4081331;28;20032;-89
2022/01/23 05:31:50;;;;;;;3.10;1.17;;;5.90;89.10;;;;;;4100491;28;20027;-88
2022/01/23 05:33:50;;;;;;;4.47;1.30;;;5.90;89.10;;;;;;4076062;29;20114;-88
2022/01/23 05:35:51;;;;;;;3.38;1.15;;;5.90;89.10;;;;;;4070564;29;20044;-89
2022/01/23 05:37:51;;;;;;;2.70;1.13;;;6.00;89.20;;;;;;4102445;28;20501;-88
2022/01/23 05:39:52;;;;;;;5.05;1.25;;;5.90;89.10;;;;;;4088836;29;20015;-90
2022/01/23 05:41:58;;;;;;;6.13;1.35;;;5.90;89.10;;;;;;4119332;28;20581;-88
2022/01/23 05:44:00;;;;;;;2.50;1.13;;;5.90;89.10;;;;;;4089212;28;20051;-89
2022/01/23 05:46:01;;;;;;;3.08;1.10;;;5.90;89.20;;;;;;4099540;28;20516;-90
2022/01/23 05:48:01;;;;;;;5.32;2.05;;;5.90;89.00;;;;;;4089091;29;20027;-89
2022/01/23 05:50:03;;;;;;;1.55;0.85;;;6.00;89.10;;;;;;4108305;28;20374;-90
2022/01/23 05:52:04;;;;;;;2.50;1.10;;;5.90;89.00;;;;;;4084333;29;20110;-88
2022/01/23 05:54:05;;;;;;;4.43;1.23;;;6.00;89.00;;;;;;4052907;29;20047;-90
2022/01/23 05:56:06;;;;;;;3.50;1.13;;;6.00;89.00;;;;;;4112702;28;20453;-91
2022/01/23 05:58:06;;;;;;;5.45;1.00;;;6.00;88.90;;;;;;4071103;29;20070;-90
2022/01/23 06:00:07;;;;;;;4.30;1.20;;;6.00;89.00;;;;;;4085376;29;20541;-90
2022/01/23 06:02:08;;;;;;;3.28;1.00;;;6.00;88.90;;;;;;4064662;29;20080;-90
2022/01/23 06:04:09;;;;;;;5.35;1.30;;;6.00;88.90;;;;;;4053359;29;20036;-91
2022/01/23 06:06:10;;;;;;;5.35;1.10;;;6.10;89.00;;;;;;4062248;29;20032;-87
2022/01/23 06:08:10;;;;;;;2.72;1.00;;;6.10;88.80;;;;;;4072899;29;20134;-88
2022/01/23 06:10:20;;;;;;;4.95;1.10;;;6.10;88.90;;;;;;4085926;29;20066;-89
2022/01/23 06:12:20;;;;;;;2.33;1.05;;;6.10;88.90;;;;;;4101634;28;20031;-88
2022/01/23 06:14:21;;;;;;;3.60;1.30;;;6.10;88.90;;;;;;4089186;28;20568;-88
2022/01/23 06:16:22;;;;;;;5.25;1.58;;;6.10;88.80;;;;;;4076485;29;20091;-88
2022/01/23 06:18:22;;;;;;;2.63;1.10;;;6.10;88.80;;;;;;4067440;29;20474;-89
2022/01/23 06:20:23;;;;;;;4.78;1.20;;;6.10;88.70;;;;;;4096761;29;20035;-89
2022/01/23 06:22:23;;;;;;;5.07;1.45;;;6.20;88.70;;;;;;4066611;29;20063;-89
2022/01/23 06:24:26;;;;;;;3.40;1.30;;;6.20;88.70;;;;;;4085920;29;20032;-90
2022/01/23 06:26:32;;;;;;;3.70;1.38;;;6.20;88.70;;;;;;4081468;29;20032;-90
2022/01/23 06:28:36;;;;;;;3.97;1.33;;;6.30;88.60;;;;;;4081423;29;20103;-88
2022/01/23 06:30:37;;;;;;;4.60;2.00;;;6.20;88.50;;;;;;4091926;28;20176;-91
2022/01/23 06:32:38;;;;;;;2.97;1.13;;;6.30;88.50;;;;;;4081306;29;20390;-89
2022/01/23 06:34:38;;;;;;;4.38;1.25;;;6.20;88.30;;;;;;4095515;28;20082;-88
2022/01/23 06:36:39;;;;;;;6.53;1.60;;;6.30;88.40;;;;;;4094277;28;20110;-88
2022/01/23 06:38:40;;;;;;;8.18;1.60;;;6.40;88.30;;;;;;4087966;28;20027;-87
2022/01/23 06:40:40;;;;;;;5.75;1.30;;;6.30;88.20;;;;;;4061548;29;20440;-87
2022/01/23 06:42:41;;;;;;;7.93;1.25;;;6.30;88.20;;;;;;4077139;29;20103;-87
2022/01/23 06:44:42;;;;;;;3.42;1.50;;;6.30;88.10;;;;;;4068140;29;20047;-88
2022/01/23 06:46:42;;;;;;;5.13;1.23;;;6.30;88.00;;;;;;4088786;28;20047;-89
2022/01/23 06:48:43;;;;;;;8.63;1.60;;;6.30;87.90;;;;;;4096793;28;20023;-89
2022/01/23 06:50:43;;;;;;;5.07;1.70;;;6.30;87.80;;;;;;4075754;29;20189;-88
2022/01/23 06:52:44;;;;;;;4.45;1.50;;;6.40;87.80;;;;;;4078470;29;20111;-88
2022/01/23 06:54:45;;;;;;;6.57;2.10;;;6.30;87.80;;;;;;4082603;29;20400;-88
2022/01/23 06:56:45;;;;;;;8.45;1.60;;;6.30;87.80;;;;;;4074000;29;20182;-89
2022/01/23 06:58:46;;;;;;;3.85;1.67;;;6.40;87.70;;;;;;4079720;29;20045;-89
2022/01/23 07:00:46;;;;;;;5.78;1.42;;;6.30;87.80;;;;;;4094758;28;20213;-89
2022/01/23 07:02:47;;;;;;;4.20;1.50;;;6.30;87.70;;;;;;4063577;29;20024;-89
2022/01/23 07:04:48;;;;;;;4.97;1.92;;;6.30;87.60;;;;;;4093200;28;20398;-88
2022/01/23 07:06:48;;;;;;;6.43;1.50;;;6.30;87.50;;;;;;4077738;29;20046;-89
2022/01/23 07:08:49;;;;;;;10.93;1.80;;;6.30;87.40;;;;;;4078877;29;20052;-90
2022/01/23 07:10:49;;;;;;;7.05;1.60;;;6.30;87.40;;;;;;4065871;29;20116;-90
2022/01/23 07:12:50;;;;;;;5.50;2.13;;;6.30;87.40;;;;;;4071447;29;20020;-90
2022/01/23 07:14:51;;;;;;;6.50;1.90;;;6.30;87.50;;;;;;4088301;28;20034;-89
2022/01/23 07:16:51;;;;;;;8.57;2.85;;;6.20;87.40;;;;;;4075712;29;20036;-90
2022/01/23 07:18:52;;;;;;;5.72;1.60;;;6.20;87.50;;;;;;4095866;28;20033;-90
2022/01/23 07:20:52;;;;;;;6.10;1.52;;;6.20;87.50;;;;;;4063979;29;20083;-88
2022/01/23 07:22:54;;;;;;;8.82;2.00;;;6.20;87.60;;;;;;4063776;29;20496;-90
2022/01/23 07:25:00;;;;;;;6.28;1.58;;;6.20;87.60;;;;;;4065142;29;20096;-92
2022/01/23 07:27:06;;;;;;;7.30;1.60;;;6.30;87.70;;;;;;4082114;29;20047;-90
2022/01/23 07:29:07;;;;;;;10.15;2.15;;;6.20;87.60;;;;;;4090299;28;20583;-90
2022/01/23 07:31:10;;;;;;;8.60;1.73;;;6.20;87.60;;;;;;4086422;29;20094;-89
2022/01/23 07:33:10;;;;;;;4.60;1.40;;;6.30;87.50;;;;;;4060833;29;20044;-88
2022/01/23 07:35:11;;;;;;;14.25;1.80;;;6.20;87.50;;;;;;4067794;29;20020;-89
2022/01/23 07:37:13;;;;;;;8.23;1.77;;;6.30;87.60;;;;;;4075798;29;20030;-90
2022/01/23 07:39:13;;;;;;;8.93;1.95;;;6.20;87.40;;;;;;4089970;28;20016;-90
2022/01/23 07:41:14;;;;;;;12.88;2.10;;;6.20;87.50;;;;;;4103168;28;20106;-91
2022/01/23 07:43:15;;;;;;;13.80;2.22;;;6.20;87.50;;;;;;4061968;29;20051;-89
2022/01/23 07:45:16;;;;;;;16.25;2.55;;;6.20;87.50;;;;;;4092621;28;20118;-89
2022/01/23 07:47:16;;;;;;;7.57;2.47;;;6.20;87.60;;;;;;4078904;29;20055;-87
2022/01/23 07:49:17;;;;;;;16.27;2.92;;;6.10;87.50;;;;;;4080111;29;20111;-88
2022/01/23 07:51:17;;;;;;;12.32;3.05;;;6.10;87.50;;;;;;4104747;28;20047;-88
2022/01/23 07:53:18;;;;;;;10.18;3.33;;;6.20;87.60;;;;;;4088402;28;20031;-88
2022/01/23 07:55:19;;;;;;;19.67;3.17;;;6.10;87.50;;;;;;4078320;29;20043;-88
2022/01/23 07:57:19;;;;;;;14.50;2.90;;;6.10;87.60;;;;;;4089180;28;20372;-88
2022/01/23 07:59:20;;;;;;;13.27;2.92;;;6.10;87.70;;;;;;4062110;29;20064;-88
2022/01/23 08:01:20;;;;;;;19.33;3.53;;;6.00;87.60;;;;;;4075482;29;20036;-88
2022/01/23 08:03:21;;;;;;;21.48;3.28;;;6.10;87.70;;;;;;4061108;29;20107;-88
2022/01/23 08:05:22;;;;;;;11.73;3.10;;;6.00;87.80;;;;;;4064996;29;20421;-89
2022/01/23 08:07:31;;;;;;;21.90;3.15;;;6.00;87.70;;;;;;4083340;29;20114;-87
2022/01/23 08:09:31;;;;;;;17.55;3.45;;;6.00;87.80;;;;;;4077817;29;20126;-88
2022/01/23 08:11:32;;;;;;;13.30;3.45;;;6.10;87.90;;;;;;4079568;29;20385;-88
2022/01/23 08:13:33;;;;;;;16.73;2.40;;;6.00;87.70;;;;;;4088137;28;20111;-88
2022/01/23 08:15:34;;;;;;;21.83;3.30;;;6.00;87.60;;;;;;4090424;28;20031;-88
2022/01/23 08:17:34;;;;;;;18.98;3.75;;;6.00;87.50;;;;;;4079704;29;20039;-88
2022/01/23 08:19:35;;;;;;;15.93;3.38;;;6.00;87.50;;;;;;4078581;29;20034;-87
2022/01/23 08:21:35;;;;;;;16.13;2.28;;;5.90;87.30;;;;;;4081956;29;20050;-88
2022/01/23 08:23:38;;;;;;;24.38;3.65;;;5.90;87.30;;;;;;4076377;29;20509;-89
2022/01/23 08:25:40;;;;;;;23.60;2.97;;;5.90;87.20;;;;;;4062457;29;20028;-87
2022/01/23 08:27:41;;;;;;;23.40;3.40;;;5.80;87.10;;;;;;4091615;28;20035;-87
2022/01/23 08:29:41;;;;;;;22.85;3.25;;;5.90;87.00;;;;;;4058404;29;20035;-89
2022/01/23 08:31:45;;;;;;;20.48;4.05;;;5.80;86.90;;;;;;4069470;29;20094;-87
2022/01/23 08:33:45;;;;;;;;;;;5.80;86.90;;;;;;4090713;28;20023;-90
2022/01/23 08:35:46;;;;;;;22.50;2.88;;;5.70;87.10;;;;;;4075789;29;19999;-87
2022/01/23 08:37:47;;;;;;;16.52;2.95;;;5.70;86.90;;;;;;4087370;28;20170;-89
2022/01/23 08:39:47;;;;;;;17.38;2.90;;;5.70;86.90;;;;;;4081228;23;20540;-86
2022/01/23 08:41:51;;;;;;;14.30;2.47;;;5.60;87.60;;;;;;4094157;28;20117;-88
2022/01/23 08:43:52;;;;;;;25.80;3.25;;;5.70;87.00;;;;;;4116261;28;20023;-88
2022/01/23 08:45:53;;;;;;;20.15;2.88;;;5.60;87.10;;;;;;4085878;28;20028;-89
2022/01/23 08:47:53;;;;;;;15.73;2.17;;;5.60;87.10;;;;;;4088769;28;20031;-89
2022/01/23 08:49:54;;;;;;;16.80;2.67;;;5.60;87.30;;;;;;4119648;28;20026;-89
2022/01/23 08:51:55;;;;;;;18.75;2.45;;;5.50;87.40;;;;;;4108364;28;20110;-87
2022/01/23 08:53:59;;;;;;;16.88;2.30;;;5.60;87.50;;;;;;4112869;28;20492;-89
2022/01/23 08:56:00;;;;;;;19.92;4.03;;;5.50;87.60;;;;;;4123090;28;20034;-90
2022/01/23 08:58:01;;;;;;;20.75;1.92;;;5.50;87.70;;;;;;4108690;28;20078;-89
2022/01/23 09:00:02;;;;;;;19.33;2.92;;;5.60;88.00;;;;;;4107865;28;20034;-89
2022/01/23 09:02:03;;;;;;;14.55;1.98;;;5.60;88.00;;;;;;4120966;28;20045;-90
2022/01/23 09:04:04;;;;;;;21.42;2.55;;;5.60;88.20;;;;;;4137772;28;20126;-90
2022/01/23 09:06:07;;;;;;;19.23;2.47;;;5.60;88.30;;;;;;4129231;28;20057;-88
2022/01/23 09:08:07;;;;;;;18.98;2.25;;;5.60;88.40;;;;;;4116211;28;20077;-88
2022/01/23 09:10:10;;;;;;;17.05;2.97;;;5.60;88.50;;;;;;4093205;28;20031;-87
2022/01/23 09:14:26;;;;;;;14.32;2.30;;;5.70;88.60;;;;;;4135275;28;20050;-87
2022/01/23 09:16:29;;;;;;;19.38;2.78;;;5.70;88.60;;;;;;4114923;28;20051;-88
2022/01/23 09:18:30;;;;;;;23.65;3.00;;;5.70;88.40;;;;;;4086163;28;20035;-87
2022/01/23 09:20:31;;;;;;;15.13;1.98;;;5.80;88.30;;;;;;4127375;28;20076;-88
2022/01/23 09:22:31;;;;;;;15.70;2.38;;;5.80;88.00;;;;;;4114919;28;20364;-87
2022/01/23 09:24:32;;;;;;;21.23;3.35;;;5.90;88.20;;;;;;4134247;23;20064;-34
2022/01/23 09:26:34;;;;;;;15.70;2.60;;;5.90;88.00;;;;;;4137667;28;20045;-35
2022/01/23 09:28:35;;;;;;;14.50;2.42;;;5.90;87.80;;;;;;4128694;28;20038;-35
2022/01/23 09:30:36;;;;;;;21.27;2.80;;;5.90;87.60;;;;;;4122310;28;20030;-35
2022/01/23 09:32:37;;;;;;;13.70;3.10;;;5.90;87.50;;;;;;4122379;28;20512;-35
2022/01/23 09:34:38;;;;;;;17.90;3.50;;;6.00;87.40;;;;;;4123187;28;20034;-34
2022/01/23 09:36:38;;;;;;;10.75;2.05;;;6.00;87.30;;;;;;4122933;28;20034;-34
2022/01/23 09:38:39;;;;;;;8.45;1.80;;;6.10;86.80;;;;;;4124118;28;20670;-35
2022/01/23 09:40:42;;;;;;;15.55;1.63;;;6.10;86.50;;;;;;4120351;28;20033;-36
2022/01/23 09:43:15;;;;;;;8.82;1.67;;;6.10;86.20;;;;;;4123594;28;20034;-37
2022/01/23 09:45:15;;;;;;;9.02;1.77;;;6.20;86.30;;;;;;4120628;28;20544;-36
2022/01/23 09:47:16;;;;;;;13.18;1.90;;;6.20;86.10;;;;;;4121068;28;20037;-37
2022/01/23 09:49:18;;;;;;;15.43;1.75;;;6.20;85.90;;;;;;4122301;28;22028;-36
2022/01/23 09:51:20;;;;;;;13.75;2.10;;;6.30;85.70;;;;;;4137372;28;20312;-37
2022/01/23 09:53:22;;;;;;;8.35;2.85;;;6.30;85.20;;;;;;4123596;28;20050;-36
2022/01/23 09:55:25;;;;;;;10.07;1.33;;;6.30;85.00;;;;;;4122328;28;20036;-36
2022/01/23 09:57:30;;;;;;;11.63;1.88;;;6.40;84.80;;;;;;4116632;28;20041;-36
2022/01/23 09:59:30;;;;;;;11.27;1.60;;;6.40;84.40;;;;;;4122519;28;20028;-36
2022/01/23 10:01:31;;;;;;;6.70;1.55;;;6.40;84.30;;;;;;4119800;28;20498;-36
2022/01/23 10:03:31;;;;;;;16.02;2.13;;;6.50;84.20;;;;;;4118580;28;21698;-36
2022/01/23 10:05:32;;;;;;;15.85;1.88;;;6.50;83.90;;;;;;4119615;28;20030;-36
2022/01/23 10:07:39;;;;;;;11.60;1.67;;;6.50;83.30;;;;;;4114430;28;20071;-36
2022/01/23 10:09:40;;;;;;;10.70;1.80;;;6.50;83.30;;;;;;4115510;28;20520;-36
2022/01/23 10:11:42;;;;;;;15.82;2.42;;;6.60;83.40;;;;;;4120494;28;20057;-37
2022/01/23 10:13:48;;;;;;;9.93;1.87;;;6.60;83.30;;;;;;4114659;28;20169;-36
2022/01/23 10:15:49;;;;;;;9.25;1.35;;;6.60;83.10;;;;;;4107153;28;20038;-36
2022/01/23 10:17:49;;;;;;;10.88;1.33;;;6.60;83.10;;;;;;4112707;28;20091;-35
2022/01/23 10:19:50;;;;;;;9.73;1.60;;;6.70;83.20;;;;;;4114642;28;20033;-36
2022/01/23 10:21:51;;;;;;;13.15;1.80;;;6.70;82.90;;;;;;4118004;28;20080;-35
2022/01/23 10:23:53;;;;;;;6.78;1.48;;;6.80;83.10;;;;;;4117311;28;20528;-36
2022/01/23 10:25:54;;;;;;;7.45;1.35;;;6.80;82.80;;;;;;4121190;28;20030;-35
2022/01/23 10:28:01;;;;;;;20.42;1.83;;;6.90;82.70;;;;;;4097605;28;20085;-34
2022/01/23 10:30:05;;;;;;;15.63;1.55;;;6.90;82.30;;;;;;4122230;28;20201;-34
2022/01/23 10:32:06;;;;;;;11.07;1.95;;;7.00;81.60;;;;;;4102710;28;20045;-34
2022/01/23 10:34:07;;;;;;;9.25;1.33;;;7.00;81.20;;;;;;4124746;28;20023;-34
2022/01/23 10:36:16;;;;;;;17.38;1.85;;;7.00;80.80;;;;;;4119640;28;20056;-34
2022/01/23 10:38:18;;;;;;;9.30;1.48;;;7.00;80.70;;;;;;4119733;28;20030;-34
2022/01/23 10:40:25;;;;;;;8.35;1.27;;;7.00;80.60;;;;;;4122680;28;20306;-35
2022/01/23 10:49:19;;;;;;;7.55;1.10;;;7.10;80.80;;;;;;4120493;28;20034;-35
2022/01/23 10:51:30;;;;;;;9.32;1.52;;;7.10;80.90;;;;;;4122844;28;20077;-35
2022/01/23 10:53:31;;;;;;;10.07;1.10;;;7.20;80.70;;;;;;4119631;28;20030;-34
2022/01/23 10:55:33;;;;;;;16.55;2.08;;;7.20;80.20;;;;;;4119688;28;20041;-34
2022/01/23 10:57:38;;;;;;;7.93;1.20;;;7.20;79.80;;;;;;4121963;28;20235;-34
2022/01/23 10:59:47;;;;;;;9.45;1.35;;;7.30;79.50;;;;;;4122812;28;20119;-34
2022/01/23 11:02:04;;;;;;;12.05;1.80;;;7.30;79.30;;;;;;4122108;28;20038;-34
2022/01/23 11:04:09;;;;;;;5.65;1.10;;;7.30;78.20;;;;;;4119410;28;20026;-33
2022/01/23 11:06:12;;;;;;;9.23;1.05;;;7.30;78.30;;;;;;4118465;28;20041;-35
2022/01/23 11:08:27;;;;;;;5.32;1.00;;;7.40;78.50;;;;;;4137236;28;20180;-34
2022/01/23 11:10:28;;;;;;;15.50;1.35;;;7.40;78.40;;;;;;4119544;28;20101;-34
2022/01/23 11:17:21;;;;;;;6.40;1.05;;;7.40;78.10;;;;;;4120686;28;20057;-33
2022/01/23 11:17:25;;;;;;;13.93;1.25;;;7.50;77.60;;;;;;4121670;28;20033;-35
2022/01/23 11:19:27;;;;;;;11.02;1.25;;;7.50;77.20;;;;;;4118572;28;20405;-35
2022/01/23 11:21:28;;;;;;;9.25;1.83;;;7.50;77.40;;;;;;4122100;28;20042;-36
2022/01/23 11:23:30;;;;;;;7.05;1.00;;;7.60;77.60;;;;;;4117427;28;20026;-35
2022/01/23 11:25:31;;;;;;;12.13;1.05;;;7.60;78.40;;;;;;4119364;28;20069;-35
2022/01/23 11:27:34;;;;;;;13.90;1.08;;;7.70;77.60;;;;;;4117686;28;20041;-35
2022/01/23 11:29:35;;;;;;;9.15;2.17;;;7.70;77.00;;;;;;4113857;28;20038;-36
2022/01/23 11:31:37;;;;;;;7.70;0.93;;;7.80;76.90;;;;;;4117078;28;20292;-36
2022/01/23 11:33:38;;;;;;;9.45;1.40;;;7.80;76.10;;;;;;4118750;28;20117;-36
2022/01/23 11:35:39;;;;;;;13.85;1.38;;;7.90;76.20;;;;;;4116335;28;20081;-36
2022/01/23 11:37:49;;;;;;;7.90;1.05;;;7.90;75.80;;;;;;4117849;28;20026;-36
2022/01/23 11:39:55;;;;;;;5.45;0.98;;;7.90;75.70;;;;;;4115513;28;20038;-37
2022/01/23 11:54:01;;;;;;;11.00;1.40;;;8.00;75.40;;;;;;4112921;28;20761;-36
2022/01/23 11:55:55;;;;;;;12.23;1.40;;;8.00;75.30;;;;;;4113660;28;20133;-35
2022/01/23 11:57:55;;;;;;;5.05;0.82;;;8.10;75.30;;;;;;4112519;28;20069;-35
2022/01/23 11:59:58;;;;;;;6.63;0.90;;;8.00;75.30;;;;;;4116849;28;20080;-35
2022/01/23 12:02:25;;;;;;;10.95;1.23;;;8.10;75.50;;;;;;4115170;28;20026;-35
2022/01/23 12:04:28;;;;;;;8.38;1.08;;;8.10;75.40;;;;;;4114272;28;20038;-35
2022/01/23 12:06:28;;;;;;;8.70;1.20;;;8.10;75.40;;;;;;4100873;28;20053;-34
2022/01/23 12:08:35;;;;;;;6.13;1.15;;;8.10;75.70;;;;;;4135442;28;20026;-34
2022/01/23 12:10:52;;;;;;;9.60;1.90;;;8.20;76.00;;;;;;4117437;28;20483;-35
2022/01/23 12:13:56;;;;;;;10.82;1.30;;;8.20;76.10;;;;;;4112166;28;20029;-35
2022/01/23 12:18:20;;;;;;;11.75;1.20;;;8.20;75.60;;;;;;4114947;28;20038;-34
2022/01/23 12:20:35;;;;;;;10.07;1.08;;;8.30;75.40;;;;;;4118695;28;20039;-35
2022/01/23 12:22:42;;;;;;;5.97;1.25;;;8.20;75.20;;;;;;4113549;28;20065;-35
2022/01/23 12:24:48;;;;;;;10.82;1.15;;;8.20;75.00;;;;;;4113120;28;20053;-34
2022/01/23 12:26:49;;;;;;;9.57;1.58;;;8.20;74.90;;;;;;4118470;28;20030;-35
2022/01/23 12:28:53;;;;;;;13.13;1.60;;;8.20;74.80;;;;;;4113787;28;20335;-34
2022/01/23 12:31:12;;;;;;;9.98;1.20;;;8.20;74.90;;;;;;4111641;28;20037;-35
2022/01/23 12:33:30;;;;;;;12.55;1.35;;;8.10;74.90;;;;;;4117008;28;20125;-35
2022/01/23 12:35:41;;;;;;;4.47;1.00;;;8.10;74.90;;;;;;4116081;28;20023;-35
2022/01/23 12:38:00;;;;;;;14.20;1.52;;;8.10;74.90;;;;;;4111867;28;20039;-36
2022/01/23 12:40:25;;;;;;;10.07;1.05;;;8.10;74.70;;;;;;4115194;28;20030;-35
2022/01/23 12:42:26;;;;;;;7.35;0.90;;;8.10;74.40;;;;;;4114553;28;20474;-35
2022/01/23 12:44:27;;;;;;;8.80;0.93;;;8.00;74.60;;;;;;4132032;28;20038;-34
2022/01/23 12:46:41;;;;;;;6.30;0.88;;;8.10;74.60;;;;;;4113348;28;20122;-37
2022/01/23 12:48:43;;;;;;;8.18;1.10;;;8.00;74.50;;;;;;4118290;28;20030;-36
2022/01/23 12:50:45;;;;;;;7.78;1.15;;;8.00;74.50;;;;;;4114833;28;20042;-35
2022/01/23 12:52:50;;;;;;;10.15;0.95;;;8.00;74.50;;;;;;4117843;28;20034;-37
2022/01/23 12:54:53;;;;;;;7.03;0.85;;;7.90;74.60;;;;;;4114482;28;20148;-36
2022/01/23 12:56:53;;;;;;;10.43;1.08;;;7.90;74.70;;;;;;4116609;28;20037;-36
2022/01/23 12:59:10;;;;;;;13.57;1.80;;;7.90;74.90;;;;;;4120839;28;20034;-37
2022/01/23 13:01:21;;;;;;;10.77;1.05;;;7.90;75.10;;;;;;4112707;28;20034;-36
2022/01/23 13:03:24;;;;;;;8.93;1.33;;;7.90;75.50;;;;;;4113937;28;20118;-36
2022/01/23 13:05:25;;;;;;;5.90;1.02;;;7.90;75.60;;;;;;4108198;28;20117;-36
2022/01/23 13:08:18;;;;;;;7.05;0.85;;;7.90;75.70;;;;;;4118390;28;20038;-36
2022/01/23 13:10:05;;;;;;;10.93;1.48;;;7.90;75.80;;;;;;4111888;28;20034;-37
2022/01/23 13:12:14;;;;;;;7.60;1.00;;;7.90;76.00;;;;;;4114487;28;20069;-35
2022/01/23 13:14:14;;;;;;;8.60;1.10;;;7.90;76.10;;;;;;4115681;28;20034;-34
2022/01/23 13:28:38;;;;;;;11.95;1.90;;;8.00;76.40;;;;;;4118473;28;20038;-35
2022/01/23 13:30:17;;;;;;;10.57;1.55;;;8.00;76.30;;;;;;4102830;28;20038;-35
2022/01/23 13:32:35;;;;;;;10.68;2.08;;;8.00;76.30;;;;;;4121341;28;20037;-36
2022/01/23 13:34:41;;;;;;;14.43;1.80;;;7.90;76.40;;;;;;4120610;28;20042;-35
2022/01/23 13:37:00;;;;;;;12.90;1.35;;;8.00;76.40;;;;;;4118412;28;20144;-35
2022/01/23 13:39:06;;;;;;;8.27;1.70;;;8.00;76.40;;;;;;4120684;28;20030;-36
2022/01/23 13:41:19;;;;;;;8.23;1.48;;;7.90;76.30;;;;;;4116717;28;20106;-34
2022/01/23 13:52:57;;;;;;;11.23;2.53;;;7.90;76.70;;;;;;4120890;28;20030;-34
2022/01/23 13:57:50;;;;;;;17.77;3.58;;;7.90;76.70;;;;;;4119707;28;20034;-35